createdAt,value
2018-08-12T00:02:10.219Z,98787.30
2018-08-12T00:04:38.706Z,98785.17
2018-08-12T00:07:07.380Z,98787.92
2018-08-12T00:09:35.826Z,98790.95
2018-08-12T00:12:05.105Z,98790.17
2018-08-12T00:14:33.582Z,98790.89
2018-08-12T00:17:01.979Z,98788.95
2018-08-12T00:19:30.530Z,98794.81
2018-08-12T00:21:59.013Z,98799.88
2018-08-12T00:24:28.358Z,98789.33
2018-08-12T00:26:56.761Z,98799.42
2018-08-12T00:29:25.219Z,98801.34
2018-08-12T00:31:53.659Z,98801.68
2018-08-12T00:34:22.184Z,98801.09
2018-08-12T00:36:50.606Z,98798.03
2018-08-12T00:39:19.086Z,98796.67
2018-08-12T00:41:47.576Z,98796.11
2018-08-12T00:44:16.052Z,98799.75
2018-08-12T00:46:44.610Z,98794.73
2018-08-12T00:49:13.048Z,98800.83
2018-08-12T00:51:41.795Z,98801.08
2018-08-12T00:54:10.247Z,98802.27
2018-08-12T00:56:38.696Z,98799.79
2018-08-12T00:59:07.392Z,98795.70
2018-08-12T01:01:35.840Z,98789.06
2018-08-12T01:04:04.299Z,98791.16
2018-08-12T01:06:33.091Z,98790.78
2018-08-12T01:09:01.550Z,98789.86
2018-08-12T01:11:30.026Z,98790.87
2018-08-12T01:13:58.534Z,98791.86
2018-08-12T01:16:26.991Z,98793.31
2018-08-12T01:18:55.516Z,98784.95
2018-08-12T01:21:24.009Z,98783.00
2018-08-12T01:23:52.513Z,98783.46
2018-08-12T01:26:21.455Z,98781.43
2018-08-12T01:28:49.912Z,98780.92
2018-08-12T01:31:18.352Z,98778.27
2018-08-12T01:33:46.828Z,98779.80
2018-08-12T01:36:15.267Z,98778.30
2018-08-12T01:38:43.997Z,98775.39
2018-08-12T01:41:12.465Z,98771.28
2018-08-12T01:43:40.981Z,98771.39
2018-08-12T01:46:09.461Z,98776.70
2018-08-12T01:48:37.896Z,98771.25
2018-08-12T01:51:06.407Z,98771.19
2018-08-12T01:53:34.888Z,98764.16
2018-08-12T01:56:03.402Z,98768.09
2018-08-12T01:58:31.937Z,98761.98
2018-08-12T02:01:00.424Z,98762.09
2018-08-12T02:03:28.908Z,98767.50
2018-08-12T02:05:57.323Z,98764.72
2018-08-12T02:08:25.779Z,98763.87
2018-08-12T02:10:54.225Z,98755.37
2018-08-12T02:13:22.669Z,98749.81
2018-08-12T02:15:51.100Z,98752.97
2018-08-12T02:18:19.588Z,98756.53
2018-08-12T02:20:48.091Z,98753.53
2018-08-12T02:23:16.572Z,98748.59
2018-08-12T02:25:45.036Z,98751.39
2018-08-12T02:28:13.558Z,98747.19
2018-08-12T02:30:41.970Z,98748.12
2018-08-12T02:33:10.449Z,98739.45
2018-08-12T02:35:38.899Z,98739.45
2018-08-12T02:38:07.418Z,98735.83
2018-08-12T02:40:35.882Z,98738.64
2018-08-12T02:43:04.377Z,98738.17
2018-08-12T02:45:32.866Z,98741.32
2018-08-12T02:48:01.317Z,98739.28
2018-08-12T02:50:29.946Z,98731.13
2018-08-12T02:52:58.624Z,98693.70
2018-08-12T02:55:27.140Z,98726.52
2018-08-12T02:57:55.552Z,98722.06
2018-08-12T03:00:24.030Z,98730.87
2018-08-12T03:02:52.501Z,98724.62
2018-08-12T03:05:21.560Z,98727.52
2018-08-12T03:07:50.037Z,98726.69
2018-08-12T03:10:18.533Z,98722.59
2018-08-12T03:12:47.000Z,98723.45
2018-08-12T03:15:15.625Z,98728.73
2018-08-12T03:17:44.117Z,98725.01
2018-08-12T03:20:12.775Z,98718.39
2018-08-12T03:22:41.253Z,98715.28
2018-08-12T03:25:10.901Z,98713.95
2018-08-12T03:27:39.884Z,98705.54
2018-08-12T03:30:09.852Z,98701.43
2018-08-12T03:32:38.304Z,98702.75
2018-08-12T03:35:06.779Z,98704.68
2018-08-12T03:37:35.239Z,98703.13
2018-08-12T03:40:03.731Z,98703.13
2018-08-12T03:42:32.195Z,98703.98
2018-08-12T03:45:00.695Z,98707.81
2018-08-12T03:47:29.140Z,98705.16
2018-08-12T03:49:57.835Z,98703.36
2018-08-12T03:52:26.620Z,98700.58
2018-08-12T03:54:55.472Z,98700.48
2018-08-12T03:57:24.297Z,98703.47
2018-08-12T03:59:52.708Z,98700.83
2018-08-12T04:02:21.169Z,98703.61
2018-08-12T04:04:49.653Z,98701.20
2018-08-12T04:07:18.091Z,98704.93
2018-08-12T04:09:46.915Z,98706.11
2018-08-12T04:12:15.375Z,98707.44
2018-08-12T04:14:43.798Z,98700.00
2018-08-12T04:17:12.356Z,98699.63
2018-08-12T04:19:40.788Z,98702.03
2018-08-12T04:22:09.250Z,98699.02
2018-08-12T04:24:37.694Z,98703.13
2018-08-12T04:27:06.638Z,98694.34
2018-08-12T04:29:35.115Z,98698.05
2018-08-12T04:32:03.587Z,98697.91
2018-08-12T04:34:32.025Z,98702.02
2018-08-12T04:37:00.546Z,98706.83
2018-08-12T04:39:29.005Z,98704.65
2018-08-12T04:41:57.463Z,98704.77
2018-08-12T04:44:25.934Z,98706.38
2018-08-12T04:46:54.486Z,98707.62
2018-08-12T04:49:22.976Z,98709.65
2018-08-12T04:51:51.523Z,98714.59
2018-08-12T04:54:19.986Z,98716.32
2018-08-12T04:56:48.590Z,98719.43
2018-08-12T04:59:17.229Z,98715.45
2018-08-12T05:01:45.670Z,98715.64
2018-08-12T05:04:14.124Z,98713.19
2018-08-12T05:06:42.582Z,98713.95
2018-08-12T05:09:12.184Z,98714.45
2018-08-12T05:11:41.156Z,98707.31
2018-08-12T05:14:09.600Z,98720.66
2018-08-12T05:16:38.089Z,98715.56
2018-08-12T05:19:06.638Z,98711.03
2018-08-12T05:21:35.187Z,98706.69
2018-08-12T05:24:03.966Z,98709.11
2018-08-12T05:26:32.412Z,98708.62
2018-08-12T05:29:00.844Z,98708.81
2018-08-12T05:31:29.862Z,98699.89
2018-08-12T05:33:58.567Z,98702.55
2018-08-12T05:36:27.047Z,98697.41
2018-08-12T05:38:55.551Z,98693.20
2018-08-12T05:41:24.378Z,98692.86
2018-08-12T05:43:52.860Z,98693.03
2018-08-12T05:46:21.388Z,98678.59
2018-08-12T05:48:50.212Z,98682.25
2018-08-12T05:51:18.766Z,98679.80
2018-08-12T05:53:47.251Z,98671.38
2018-08-12T05:56:15.772Z,98672.27
2018-08-12T05:58:44.260Z,98661.84
2018-08-12T06:01:12.699Z,98665.67
2018-08-12T06:03:41.128Z,98658.50
2018-08-12T06:06:09.594Z,98648.30
2018-08-12T06:08:38.421Z,98644.72
2018-08-12T06:11:07.105Z,98645.39
2018-08-12T06:13:35.570Z,98640.17
2018-08-12T06:16:04.763Z,98642.31
2018-08-12T06:18:33.207Z,98636.35
2018-08-12T06:21:01.687Z,98641.09
2018-08-12T06:23:30.167Z,98636.69
2018-08-12T06:25:58.653Z,98635.13
2018-08-12T06:28:27.216Z,98639.09
2018-08-12T06:30:55.683Z,98636.37
2018-08-12T06:33:24.185Z,98629.17
2018-08-12T06:35:52.666Z,98628.84
2018-08-12T06:38:21.240Z,98625.17
2018-08-12T06:40:49.727Z,98627.98
2018-08-12T06:43:18.914Z,98624.98
2018-08-12T06:45:47.355Z,98628.28
2018-08-12T06:48:15.993Z,98626.75
2018-08-12T06:50:44.456Z,98618.90
2018-08-12T06:53:12.937Z,98612.63
2018-08-12T06:55:41.501Z,98614.24
2018-08-12T06:58:09.958Z,98608.87
2018-08-12T07:00:38.448Z,98612.38
2018-08-12T07:03:07.706Z,98609.08
2018-08-12T07:05:36.186Z,98608.41
2018-08-12T07:08:04.712Z,98600.67
2018-08-12T07:10:33.359Z,98594.36
2018-08-12T07:13:01.863Z,98595.52
2018-08-12T07:15:30.300Z,98589.31
2018-08-12T07:17:58.719Z,98593.64
2018-08-12T07:20:27.161Z,98588.61
2018-08-12T07:22:55.886Z,98588.42
2018-08-12T07:25:24.574Z,98587.71
2018-08-12T07:27:53.003Z,98580.12
2018-08-12T07:30:21.545Z,98577.86
2018-08-12T07:32:50.135Z,98574.16
2018-08-12T07:35:18.591Z,98573.33
2018-08-12T07:37:47.088Z,98566.28
2018-08-12T07:40:17.819Z,98562.89
2018-08-12T07:42:47.168Z,98559.89
2018-08-12T07:45:15.682Z,98557.98
2018-08-12T07:47:44.714Z,98553.25
2018-08-12T07:50:13.519Z,98549.77
2018-08-12T07:52:43.694Z,98551.11
2018-08-12T07:55:13.920Z,98551.59
2018-08-12T07:57:43.464Z,98549.77
2018-08-12T08:00:17.572Z,98543.30
2018-08-12T08:02:46.308Z,98542.97
2018-08-12T08:05:14.876Z,98536.59
2018-08-12T08:07:43.555Z,98536.76
2018-08-12T08:10:14.346Z,98535.67
2018-08-12T08:12:42.843Z,98529.73
2018-08-12T08:15:17.071Z,98522.64
2018-08-12T08:17:46.132Z,98527.22
2018-08-12T08:20:15.288Z,98525.13
2018-08-12T08:22:44.302Z,98517.49
2018-08-12T08:25:13.323Z,98522.69
2018-08-12T08:27:41.972Z,98514.59
2018-08-12T08:30:13.557Z,98514.22
2018-08-12T08:32:42.556Z,98512.56
2018-08-12T08:35:12.364Z,98513.71
2018-08-12T08:37:41.352Z,98515.87
2018-08-12T08:40:14.322Z,98510.72
2018-08-12T08:43:45.324Z,98503.95
2018-08-12T08:46:13.793Z,98505.55
2018-08-12T08:48:42.239Z,98508.16
2018-08-12T08:51:10.654Z,98506.03
2018-08-12T08:53:39.165Z,98509.80
2018-08-12T08:56:07.840Z,98502.83
2018-08-12T08:58:36.307Z,98499.15
2018-08-12T09:01:04.804Z,98495.09
2018-08-12T09:03:33.244Z,98491.22
2018-08-12T09:06:01.754Z,98492.47
2018-08-12T09:08:30.551Z,98487.78
2018-08-12T09:11:29.116Z,98483.80
2018-08-12T09:13:57.669Z,98478.63
2018-08-12T09:16:26.127Z,98472.75
2018-08-12T09:18:54.588Z,98471.15
2018-08-12T09:21:23.028Z,98475.34
2018-08-12T09:23:51.515Z,98467.20
2018-08-12T09:26:19.931Z,98465.72
2018-08-12T09:28:48.345Z,98457.81
2018-08-12T09:31:16.814Z,98460.11
2018-08-12T09:33:45.604Z,98458.06
2018-08-12T09:36:14.354Z,98458.86
2018-08-12T09:38:42.845Z,98454.75
2018-08-12T09:41:11.316Z,98445.59
2018-08-12T09:43:39.785Z,98440.84
2018-08-12T09:46:08.670Z,98442.16
2018-08-12T09:48:37.832Z,98439.67
2018-08-12T09:51:06.275Z,98433.43
2018-08-12T09:53:34.778Z,98428.53
2018-08-12T09:56:03.185Z,98419.59
2018-08-12T09:58:31.742Z,98426.26
2018-08-12T10:01:00.185Z,98422.27
2018-08-12T10:03:28.673Z,98415.35
2018-08-12T10:05:57.186Z,98411.38
2018-08-12T10:08:25.625Z,98405.27
2018-08-12T10:10:54.114Z,98403.03
2018-08-12T10:13:22.611Z,98396.34
2018-08-12T10:15:51.212Z,98392.80
2018-08-12T10:18:19.664Z,98386.78
2018-08-12T10:20:48.187Z,98383.95
2018-08-12T10:23:16.655Z,98373.44
2018-08-12T10:25:45.364Z,98377.46
2018-08-12T10:28:13.915Z,98378.56
2018-08-12T10:30:43.053Z,98373.44
2018-08-12T10:33:11.544Z,98373.30
2018-08-12T10:35:40.116Z,98370.09
2018-08-12T10:38:08.567Z,98365.17
2018-08-12T10:40:36.987Z,98365.56
2018-08-12T10:43:05.518Z,98362.41
2018-08-12T10:45:33.953Z,98364.65
2018-08-12T10:48:02.433Z,98351.62
2018-08-12T10:50:31.254Z,98356.82
2018-08-12T10:52:59.957Z,98354.25
2018-08-12T10:55:28.602Z,98344.12
2018-08-12T10:57:57.106Z,98348.23
2018-08-12T11:00:27.940Z,98341.14
2018-08-12T11:02:56.524Z,98342.05
2018-08-12T11:05:25.015Z,98333.47
2018-08-12T11:07:55.977Z,98342.95
2018-08-12T11:10:24.969Z,98326.48
2018-08-12T11:12:53.439Z,98328.55
2018-08-12T11:15:22.193Z,98332.79
2018-08-12T11:17:50.675Z,98326.36
2018-08-12T11:20:19.499Z,98328.81
2018-08-12T11:22:48.870Z,98323.42
2018-08-12T11:25:17.388Z,98318.03
2018-08-12T11:27:45.962Z,98315.71
2018-08-12T11:30:16.321Z,98309.81
2018-08-12T11:32:44.884Z,98303.25
2018-08-12T11:35:15.125Z,98291.86
2018-08-12T11:37:44.331Z,98295.22
2018-08-12T11:40:14.077Z,98290.86
2018-08-12T11:42:42.894Z,98291.20
2018-08-12T11:45:14.303Z,98289.80
2018-08-12T11:47:43.603Z,98288.91
2018-08-12T11:50:12.780Z,98288.81
2018-08-12T11:52:42.348Z,98273.78
2018-08-12T11:55:12.515Z,98267.59
2018-08-12T11:57:41.516Z,98264.25
2018-08-12T12:00:13.275Z,98268.67
2018-08-12T12:02:41.796Z,98263.67
2018-08-12T12:05:12.473Z,98252.53
2018-08-12T12:07:41.425Z,98244.19
2018-08-12T12:10:12.814Z,98245.11
2018-08-12T12:12:42.894Z,98236.35
2018-08-12T12:15:12.592Z,98230.27
2018-08-12T12:17:41.404Z,98233.16
2018-08-12T12:20:11.279Z,98231.88
2018-08-12T12:22:41.501Z,98230.41
2018-08-12T12:25:11.824Z,98228.91
2018-08-12T12:27:40.546Z,98219.14
2018-08-12T12:30:11.424Z,98213.73
2018-08-12T12:32:39.918Z,98215.02
2018-08-12T12:35:08.547Z,98213.09
2018-08-12T12:37:37.369Z,98206.42
2018-08-12T12:40:07.596Z,98197.23
2018-08-12T12:42:36.582Z,98199.00
2018-08-12T12:45:06.894Z,98200.36
2018-08-12T12:47:35.682Z,98194.53
2018-08-12T12:50:05.800Z,98193.94
2018-08-12T12:52:34.302Z,98190.12
2018-08-12T12:55:03.099Z,98189.30
2018-08-12T12:57:31.848Z,98195.91
2018-08-12T13:00:00.768Z,98182.69
2018-08-12T13:02:29.231Z,98187.98
2018-08-12T13:04:57.747Z,98181.63
2018-08-12T13:07:26.199Z,98170.61
2018-08-12T13:09:54.766Z,98168.66
2018-08-12T13:12:23.662Z,98174.66
2018-08-12T13:14:52.083Z,98169.69
2018-08-12T13:17:20.647Z,98165.03
2018-08-12T13:19:49.103Z,98161.90
2018-08-12T13:22:17.567Z,98149.83
2018-08-12T13:24:46.448Z,98151.44
2018-08-12T13:27:14.860Z,98147.70
2018-08-12T13:29:43.266Z,98143.11
2018-08-12T13:32:12.068Z,98137.75
2018-08-12T13:34:40.555Z,98140.94
2018-08-12T13:37:09.015Z,98129.23
2018-08-12T13:39:37.446Z,98130.91
2018-08-12T13:42:05.915Z,98127.87
2018-08-12T13:44:34.380Z,98127.33
2018-08-12T13:47:02.842Z,98123.61
2018-08-12T13:49:31.272Z,98122.33
2018-08-12T13:51:59.992Z,98108.27
2018-08-12T13:54:28.715Z,98103.77
2018-08-12T13:56:57.412Z,98107.22
2018-08-12T13:59:25.816Z,98100.77
2018-08-12T14:01:54.353Z,98098.72
2018-08-12T14:04:22.807Z,98094.70
2018-08-12T14:06:51.482Z,98083.75
2018-08-12T14:09:19.992Z,98082.88
2018-08-12T14:11:48.416Z,98089.34
2018-08-12T14:14:16.951Z,98085.60
2018-08-12T14:16:45.398Z,98086.81
2018-08-12T14:19:14.039Z,98069.92
2018-08-12T14:21:42.532Z,98080.17
2018-08-12T14:24:11.447Z,98078.26
2018-08-12T14:26:39.955Z,98072.48
2018-08-12T14:29:08.375Z,98062.88
2018-08-12T14:31:36.871Z,98065.48
2018-08-12T14:34:05.545Z,98058.76
2018-08-12T14:36:34.052Z,98058.08
2018-08-12T14:39:02.580Z,98062.31
2018-08-12T14:41:31.049Z,98053.84
2018-08-12T14:43:59.491Z,98044.85
2018-08-12T14:46:27.961Z,98053.16
2018-08-12T14:48:56.512Z,98036.74
2018-08-12T14:51:25.184Z,97950.09
2018-08-12T14:53:53.628Z,98033.08
2018-08-12T14:56:22.282Z,98035.32
2018-08-12T14:58:50.755Z,98032.02
2018-08-12T15:01:19.211Z,98033.97
2018-08-12T15:03:47.706Z,98023.77
2018-08-12T15:06:16.187Z,98021.86
2018-08-12T15:08:44.691Z,98025.60
2018-08-12T15:11:13.161Z,98031.16
2018-08-12T15:13:41.644Z,98017.48
2018-08-12T15:16:10.132Z,98009.79
2018-08-12T15:18:38.605Z,98013.08
2018-08-12T15:21:07.372Z,98005.98
2018-08-12T15:23:35.899Z,98001.06
2018-08-12T15:26:04.374Z,97997.77
2018-08-12T15:28:32.933Z,98005.28
2018-08-12T15:31:01.408Z,98005.50
2018-08-12T15:33:30.159Z,98001.33
2018-08-12T15:35:58.779Z,97994.73
2018-08-12T15:38:27.232Z,97990.10
2018-08-12T15:40:55.743Z,97995.80
2018-08-12T15:43:24.237Z,97999.23
2018-08-12T15:45:52.707Z,97987.59
2018-08-12T15:48:21.375Z,97978.30
2018-08-12T15:50:49.814Z,97974.58
2018-08-12T15:53:18.389Z,97980.23
2018-08-12T15:55:47.103Z,97961.48
2018-08-12T15:58:15.561Z,97973.05
2018-08-12T16:00:44.048Z,97970.60
2018-08-12T16:03:12.517Z,97968.22
2018-08-12T16:05:41.047Z,97966.87
2018-08-12T16:08:09.551Z,97962.97
2018-08-12T16:10:37.993Z,97960.19
2018-08-12T16:13:06.619Z,97953.44
2018-08-12T16:15:35.379Z,97955.28
2018-08-12T16:18:04.138Z,97950.28
2018-08-12T16:20:32.714Z,97949.53
2018-08-12T16:23:01.248Z,97948.44
2018-08-12T16:25:29.940Z,97946.67
2018-08-12T16:27:58.901Z,97938.14
2018-08-12T16:30:27.424Z,97932.77
2018-08-12T16:32:56.403Z,97936.09
2018-08-12T16:35:24.905Z,97928.62
2018-08-12T16:37:54.087Z,97927.13
2018-08-12T16:40:22.579Z,97919.69
2018-08-12T16:42:51.736Z,97921.34
2018-08-12T16:45:21.063Z,97912.98
2018-08-12T16:47:49.850Z,97913.02
2018-08-12T16:50:18.624Z,97914.52
2018-08-12T16:52:47.077Z,97907.91
2018-08-12T16:55:17.261Z,97906.25
2018-08-12T16:57:46.751Z,97906.77
2018-08-12T17:00:19.304Z,97904.67
2018-08-12T17:02:48.144Z,97904.13
2018-08-12T17:05:18.037Z,97899.59
2018-08-12T17:07:46.839Z,97893.31
2018-08-12T17:10:16.677Z,97892.72
2018-08-12T17:12:45.483Z,97895.79
2018-08-12T17:15:16.219Z,97885.95
2018-08-12T17:17:44.731Z,97890.67
2018-08-12T17:20:15.171Z,97887.20
2018-08-12T17:22:44.666Z,97885.66
2018-08-12T17:25:13.143Z,97881.57
2018-08-12T17:27:41.634Z,97877.83
2018-08-12T17:30:11.492Z,97881.98
2018-08-12T17:32:40.001Z,97876.78
2018-08-12T17:35:09.477Z,97883.06
2018-08-12T17:37:38.555Z,97879.97
2018-08-12T17:40:09.064Z,97880.08
2018-08-12T17:42:37.546Z,97875.27
2018-08-12T17:45:07.077Z,97885.51
2018-08-12T17:47:35.761Z,97872.94
2018-08-12T17:50:05.176Z,97878.30
2018-08-12T17:52:33.659Z,97871.59
2018-08-12T17:55:02.216Z,97864.91
2018-08-12T17:57:31.218Z,97872.20
2018-08-12T17:59:59.928Z,97872.24
2018-08-12T18:02:28.365Z,97874.30
2018-08-12T18:04:57.004Z,97868.81
2018-08-12T18:07:25.482Z,97878.43
2018-08-12T18:09:53.910Z,97871.88
2018-08-12T18:12:22.378Z,97868.49
2018-08-12T18:14:51.098Z,97872.06
2018-08-12T18:17:19.773Z,97868.14
2018-08-12T18:19:48.248Z,97866.03
2018-08-12T18:22:16.759Z,97871.52
2018-08-12T18:24:45.311Z,97873.88
2018-08-12T18:27:14.347Z,97872.93
2018-08-12T18:29:42.816Z,97869.98
2018-08-12T18:32:11.288Z,97875.69
2018-08-12T18:34:39.773Z,97876.64
2018-08-12T18:37:08.216Z,97876.82
2018-08-12T18:39:36.710Z,97885.31
2018-08-12T18:42:05.148Z,97879.61
2018-08-12T18:44:33.928Z,97889.02
2018-08-12T18:47:02.455Z,97891.95
2018-08-12T18:49:45.359Z,97893.03
2018-08-12T18:52:14.350Z,97896.17
2018-08-12T18:54:42.906Z,97890.42
2018-08-12T18:57:11.344Z,97893.12
2018-08-12T18:59:40.083Z,97897.45
2018-08-12T19:02:08.582Z,97891.62
2018-08-12T19:04:37.115Z,97896.63
2018-08-12T19:07:05.969Z,97893.28
2018-08-12T19:09:34.407Z,97895.36
2018-08-12T19:12:03.556Z,97895.30
2018-08-12T19:14:32.136Z,97896.15
2018-08-12T19:17:00.720Z,97896.89
2018-08-12T19:19:29.467Z,97896.64
2018-08-12T19:21:58.206Z,97897.83
2018-08-12T19:24:26.672Z,97899.78
2018-08-12T19:26:55.306Z,97901.66
2018-08-12T19:29:23.766Z,97899.06
2018-08-12T19:31:52.211Z,97904.06
2018-08-12T19:34:20.653Z,97902.84
2018-08-12T19:36:49.292Z,97902.61
2018-08-12T19:39:18.207Z,97897.64
2018-08-12T19:41:46.666Z,97898.06
2018-08-12T19:44:15.128Z,97892.90
2018-08-12T19:46:43.586Z,97893.60
2018-08-12T19:49:12.020Z,97885.00
2018-08-12T19:51:40.439Z,97890.47
2018-08-12T19:54:09.105Z,97881.69
2018-08-12T19:56:37.583Z,97877.13
2018-08-12T19:59:06.013Z,97888.19
2018-08-12T20:01:34.479Z,97880.20
2018-08-12T20:04:02.944Z,97887.84
2018-08-12T20:06:31.438Z,97886.70
2018-08-12T20:08:59.914Z,97882.22
2018-08-12T20:11:28.392Z,97879.78
2018-08-12T20:13:57.078Z,97878.14
2018-08-12T20:16:25.525Z,97868.09
2018-08-12T20:18:54.979Z,97884.07
2018-08-12T20:21:23.437Z,97878.66
2018-08-12T20:23:51.890Z,97882.80
2018-08-12T20:26:20.399Z,97877.22
2018-08-12T20:28:48.904Z,97878.18
2018-08-12T20:31:17.483Z,97877.30
2018-08-12T20:33:45.900Z,97873.85
2018-08-12T20:36:14.955Z,97873.75
2018-08-12T20:38:43.443Z,97878.91
2018-08-12T20:41:11.857Z,97876.07
2018-08-12T20:43:40.407Z,97879.08
2018-08-12T20:46:09.022Z,97883.33
2018-08-12T20:48:37.563Z,97890.48
2018-08-12T20:51:06.247Z,97884.73
2018-08-12T20:53:34.814Z,97889.83
2018-08-12T20:56:03.383Z,97882.97
2018-08-12T20:58:31.816Z,97886.53
2018-08-12T21:01:00.258Z,97889.22
2018-08-12T21:03:28.747Z,97889.84
2018-08-12T21:05:57.183Z,97886.08
2018-08-12T21:08:25.667Z,97888.09
2018-08-12T21:10:54.099Z,97891.33
2018-08-12T21:13:22.567Z,97894.64
2018-08-12T21:15:51.283Z,97896.87
2018-08-12T21:18:19.772Z,97893.11
2018-08-12T21:20:48.214Z,97888.94
2018-08-12T21:23:16.900Z,97888.39
2018-08-12T21:25:45.311Z,97886.79
2018-08-12T21:28:13.828Z,97890.36
2018-08-12T21:30:42.264Z,97883.05
2018-08-12T21:33:10.740Z,97882.87
2018-08-12T21:35:39.188Z,97882.70
2018-08-12T21:38:07.642Z,97883.11
2018-08-12T21:40:36.095Z,97880.73
2018-08-12T21:43:04.563Z,97873.27
2018-08-12T21:45:33.023Z,97871.54
2018-08-12T21:48:01.456Z,97872.95
2018-08-12T21:50:29.950Z,97870.02
2018-08-12T21:52:58.395Z,97869.70
2018-08-12T21:55:26.881Z,97873.84
2018-08-12T21:57:55.379Z,97863.39
2018-08-12T22:00:23.978Z,97859.47
2018-08-12T22:02:52.444Z,97864.12
2018-08-12T22:05:20.895Z,97859.81
2018-08-12T22:07:49.327Z,97865.80
2018-08-12T22:10:17.828Z,97854.41
2018-08-12T22:12:46.390Z,97858.98
2018-08-12T22:15:14.912Z,97863.00
2018-08-12T22:17:43.416Z,97860.06
2018-08-12T22:20:11.860Z,97859.44
2018-08-12T22:22:40.330Z,97863.08
2018-08-12T22:25:09.683Z,97871.85
2018-08-12T22:27:38.111Z,97868.32
2018-08-12T22:30:09.566Z,97865.64
2018-08-12T22:32:38.007Z,97860.94
2018-08-12T22:35:06.567Z,97867.86
2018-08-12T22:37:35.038Z,97873.16
2018-08-12T22:40:04.151Z,97869.08
2018-08-12T22:42:32.609Z,97857.50
2018-08-12T22:45:01.035Z,97862.48
2018-08-12T22:47:29.529Z,97861.14
2018-08-12T22:49:58.075Z,97853.32
2018-08-12T22:52:26.508Z,97855.20
2018-08-12T22:54:55.009Z,97859.12
2018-08-12T22:57:23.463Z,97860.32
2018-08-12T22:59:51.943Z,97863.33
2018-08-12T23:02:20.473Z,97858.25
2018-08-12T23:04:49.175Z,97861.83
2018-08-12T23:07:17.663Z,97865.00
2018-08-12T23:09:46.118Z,97859.05
2018-08-12T23:12:15.388Z,97861.76
2018-08-12T23:14:43.821Z,97865.97
2018-08-12T23:17:12.249Z,97859.45
2018-08-12T23:19:40.663Z,97861.06
2018-08-12T23:22:09.113Z,97853.73
2018-08-12T23:24:37.601Z,97849.72
2018-08-12T23:27:06.024Z,97846.73
2018-08-12T23:29:34.455Z,97845.17
2018-08-12T23:32:02.879Z,97851.05
2018-08-12T23:34:31.314Z,97845.91
2018-08-12T23:36:59.884Z,97842.16
2018-08-12T23:39:28.468Z,97842.35
2018-08-12T23:41:57.329Z,97838.84
2018-08-12T23:44:25.770Z,97834.19
2018-08-12T23:46:54.272Z,97840.35
2018-08-12T23:49:22.813Z,97844.06
2018-08-12T23:51:51.269Z,97837.30
2018-08-12T23:54:20.364Z,97843.86
2018-08-12T23:56:49.055Z,97837.63
2018-08-12T23:59:17.512Z,97837.32
